Time;durP1;ratioP1;P1;durP2;ratioP2;P2;SDS_P1;SDS_P2;PMS_P1;PMS_P2;Temp;Humidity;BMP_temperature;BMP_pressure;BME280_temperature;BME280_humidity;BME280_pressure;Samples;Min_cycle;Max_cycle;Signal;HPM_P1;HPM_P2
2021/03/06 00:00:33;;;;;;;11.57;7.35;;;128.10;2150.40;;;;;;4910663;29;20055;-71
2021/03/06 00:02:59;;;;;;;10.43;6.93;;;128.10;2150.40;;;;;;4907697;29;20024;-73
2021/03/06 00:05:27;;;;;;;10.82;6.78;;;128.10;2150.40;;;;;;4915071;29;20527;-71
2021/03/06 00:07:52;;;;;;;14.90;8.07;;;128.10;2150.40;;;;;;4912456;29;20044;-71
2021/03/06 00:10:18;;;;;;;11.15;7.13;;;128.20;2150.40;;;;;;4899866;29;20075;-72
2021/03/06 00:12:46;;;;;;;11.32;7.00;;;128.10;2124.80;;;;;;4904968;29;20028;-73
2021/03/06 00:15:26;;;;;;;9.90;6.30;;;128.20;2124.80;;;;;;4912884;29;20397;-73
2021/03/06 00:17:53;;;;;;;10.90;7.50;;;128.20;2099.20;;;;;;4905437;29;20031;-72
2021/03/06 00:20:20;;;;;;;11.48;6.80;;;128.20;2124.80;;;;;;4910971;29;20034;-73
2021/03/06 00:22:46;;;;;;;11.13;7.18;;;128.20;2124.80;;;;;;4895729;29;20024;-72
2021/03/06 00:25:14;;;;;;;12.60;7.43;;;128.20;2124.80;;;;;;4904229;29;20088;-72
2021/03/06 00:27:40;;;;;;;9.35;6.97;;;128.20;2124.80;;;;;;4909551;29;20050;-73
2021/03/06 00:30:11;;;;;;;13.90;8.30;;;128.20;2124.80;;;;;;4909656;29;20528;-73
2021/03/06 00:32:37;;;;;;;12.85;7.63;;;128.20;2124.80;;;;;;4908758;29;20389;-73
2021/03/06 00:35:04;;;;;;;12.10;7.43;;;128.20;2124.80;;;;;;4912951;29;20048;-71
2021/03/06 00:37:30;;;;;;;10.82;6.82;;;128.30;2124.80;;;;;;4908652;29;20052;-72
2021/03/06 00:39:56;;;;;;;12.52;7.40;;;128.20;2124.80;;;;;;4918236;29;20067;-72
2021/03/06 00:42:22;;;;;;;14.70;8.00;;;128.20;2099.20;;;;;;4914544;29;20029;-72
2021/03/06 00:44:47;;;;;;;13.65;8.00;;;128.20;2073.60;;;;;;4916494;29;20035;-72
2021/03/06 00:47:13;;;;;;;10.20;6.50;;;128.20;2073.60;;;;;;4923363;29;20032;-72
2021/03/06 00:49:39;;;;;;;13.23;8.55;;;128.20;2048.00;;;;;;4942191;29;20068;-71
2021/03/06 00:52:05;;;;;;;13.25;7.00;;;128.20;2048.00;;;;;;4901087;29;20032;-71
2021/03/06 00:54:30;;;;;;;8.50;6.38;;;128.20;2048.00;;;;;;4929382;29;20075;-71
2021/03/06 00:56:56;;;;;;;11.27;8.00;;;128.10;2048.00;;;;;;4932652;29;20037;-71
2021/03/06 00:59:22;;;;;;;14.90;7.38;;;128.20;2022.40;;;;;;4925349;29;20548;-71
2021/03/06 01:01:48;;;;;;;12.18;7.85;;;128.10;2022.40;;;;;;4925778;29;20046;-71
2021/03/06 01:04:13;;;;;;;11.45;7.15;;;128.00;2022.40;;;;;;4917207;29;20484;-71
2021/03/06 01:06:39;;;;;;;10.90;6.95;;;128.00;2022.40;;;;;;4902059;29;20040;-71
2021/03/06 01:09:05;;;;;;;12.63;7.07;;;128.00;2022.40;;;;;;4918574;29;20040;-72
2021/03/06 01:11:31;;;;;;;14.57;7.65;;;128.00;2022.40;;;;;;4902313;29;20024;-71
2021/03/06 01:13:57;;;;;;;12.45;7.65;;;128.00;2022.40;;;;;;4918168;29;20370;-71
2021/03/06 01:16:23;;;;;;;11.57;7.18;;;128.00;1996.80;;;;;;4918721;29;20042;-71
2021/03/06 01:18:48;;;;;;;13.48;8.25;;;128.00;1996.80;;;;;;4920286;29;20152;-71
2021/03/06 01:21:14;;;;;;;10.55;6.95;;;103.30;1996.80;;;;;;4924895;29;20124;-71
2021/03/06 01:23:40;;;;;;;12.40;7.55;;;103.30;1971.20;;;;;;4921263;29;20452;-71
2021/03/06 01:26:06;;;;;;;11.18;7.22;;;103.20;1971.20;;;;;;4918274;29;20064;-71
2021/03/06 01:28:31;;;;;;;10.68;7.38;;;103.20;1945.60;;;;;;4929260;29;20024;-71
2021/03/06 01:30:57;;;;;;;9.45;6.50;;;103.20;1945.60;;;;;;4918109;29;20494;-71
2021/03/06 01:33:23;;;;;;;17.65;9.98;;;103.20;1971.20;;;;;;4901257;29;20043;-72
2021/03/06 01:35:49;;;;;;;12.88;9.68;;;103.10;1945.60;;;;;;4917903;29;20433;-72
2021/03/06 01:38:15;;;;;;;13.02;7.63;;;103.10;1945.60;;;;;;4901649;29;20032;-71
2021/03/06 01:40:40;;;;;;;11.77;8.20;;;103.10;1945.60;;;;;;4944628;29;20102;-72
2021/03/06 01:43:08;;;;;;;9.90;7.18;;;103.10;1945.60;;;;;;4920539;29;20076;-71
2021/03/06 01:45:35;;;;;;;14.85;7.82;;;103.10;1945.60;;;;;;4929768;29;20031;-71
2021/03/06 01:48:01;;;;;;;12.38;7.88;;;103.00;1945.60;;;;;;4903361;29;20028;-71
2021/03/06 01:50:32;;;;;;;14.23;7.88;;;103.10;1945.60;;;;;;4903078;29;20510;-72
2021/03/06 01:53:00;;;;;;;13.90;7.93;;;103.10;1920.00;;;;;;4901723;29;20008;-72
2021/03/06 01:55:27;;;;;;;14.45;8.25;;;103.00;1920.00;;;;;;4918009;29;20077;-71
2021/03/06 01:57:53;;;;;;;14.02;8.73;;;103.10;1920.00;;;;;;4918397;29;20031;-72
2021/03/06 02:00:22;;;;;;;12.13;7.97;;;103.00;1945.60;;;;;;4930528;29;20048;-71
2021/03/06 02:02:51;;;;;;;12.45;8.48;;;103.00;1920.00;;;;;;4919903;29;20027;-70
2021/03/06 02:05:18;;;;;;;15.25;9.18;;;103.00;1945.60;;;;;;4924564;29;20028;-71
2021/03/06 02:07:44;;;;;;;14.15;9.25;;;103.00;1945.60;;;;;;4928420;29;20420;-71
2021/03/06 02:10:12;;;;;;;17.70;8.70;;;103.00;1945.60;;;;;;4923134;29;20389;-71
2021/03/06 02:12:55;;;;;;;11.55;8.55;;;103.00;1945.60;;;;;;4920446;29;20171;-71
2021/03/06 02:15:30;;;;;;;13.65;8.52;;;103.00;1920.00;;;;;;4921394;29;20035;-71
2021/03/06 02:18:03;;;;;;;13.80;8.68;;;102.90;1920.00;;;;;;4932740;29;20119;-71
2021/03/06 02:20:29;;;;;;;14.13;8.75;;;102.90;1920.00;;;;;;4928341;29;20020;-71
2021/03/06 02:23:27;;;;;;;14.50;8.10;;;102.90;1920.00;;;;;;4922675;29;20034;-71
2021/03/06 02:26:04;;;;;;;13.95;8.77;;;102.90;1920.00;;;;;;4872096;29;20033;-70
2021/03/06 02:28:52;;;;;;;14.85;8.98;;;102.90;1920.00;;;;;;4887967;29;20053;-71
2021/03/06 02:31:20;;;;;;;12.88;9.20;;;102.90;1894.40;;;;;;4884359;29;20033;-71
2021/03/06 02:33:56;;;;;;;15.48;9.25;;;102.80;1894.40;;;;;;4877520;29;20052;-71
2021/03/06 02:36:24;;;;;;;;;;;102.80;1894.40;;;;;;4879578;29;20403;-70
2021/03/06 02:38:53;;;;;;;16.15;8.23;;;102.80;1894.40;;;;;;4888616;29;19908;-71
2021/03/06 02:41:19;;;;;;;16.50;10.15;;;102.70;1894.40;;;;;;4877933;29;20044;-70
2021/03/06 02:43:45;;;;;;;14.85;8.73;;;102.70;1894.40;;;;;;4877178;29;20041;-72
2021/03/06 02:46:12;;;;;;;13.85;8.77;;;102.60;1868.80;;;;;;4889551;29;20037;-71
2021/03/06 02:48:38;;;;;;;13.55;9.23;;;102.60;1894.40;;;;;;4891575;29;20025;-71
2021/03/06 02:51:04;;;;;;;13.63;8.80;;;102.60;1894.40;;;;;;4861048;29;20048;-71
2021/03/06 02:53:29;;;;;;;15.65;8.90;;;102.60;1894.40;;;;;;4877128;29;20037;-71
2021/03/06 02:55:55;;;;;;;12.80;8.73;;;102.60;1894.40;;;;;;4877102;29;20040;-71
2021/03/06 02:58:35;;;;;;;13.32;8.98;;;102.50;1894.40;;;;;;4881398;29;20395;-71
2021/03/06 03:01:16;;;;;;;14.88;8.90;;;102.50;1920.00;;;;;;4878047;29;20035;-71
2021/03/06 03:04:45;;;;;;;13.40;8.52;;;102.50;1920.00;;;;;;4918132;29;20500;-71
2021/03/06 03:07:21;;;;;;;15.15;8.48;;;102.50;1920.00;;;;;;4861851;29;20044;-72
2021/03/06 03:09:53;;;;;;;13.02;8.40;;;102.50;1920.00;;;;;;4873868;29;20119;-71
2021/03/06 03:12:24;;;;;;;13.18;7.32;;;102.50;1920.00;;;;;;4867389;29;20048;-71
2021/03/06 03:15:10;;;;;;;17.10;9.73;;;102.40;1920.00;;;;;;4876730;29;20048;-71
2021/03/06 03:17:40;;;;;;;14.70;9.65;;;102.40;1920.00;;;;;;4861913;29;20040;-71
2021/03/06 03:20:35;;;;;;;15.75;9.27;;;102.40;1920.00;;;;;;4859220;29;20035;-71
2021/03/06 03:23:52;;;;;;;17.50;11.75;;;102.50;1920.00;;;;;;4876293;29;20511;-71
2021/03/06 03:26:21;;;;;;;9.88;7.35;;;102.40;1920.00;;;;;;4854748;29;20049;-71
2021/03/06 03:28:49;;;;;;;17.83;9.07;;;102.50;1920.00;;;;;;4863286;29;20410;-71
2021/03/06 03:31:18;;;;;;;11.85;7.47;;;102.50;1920.00;;;;;;4876182;29;20033;-71
2021/03/06 03:33:44;;;;;;;10.25;7.40;;;102.40;1920.00;;;;;;4872660;29;20507;-72
2021/03/06 03:36:11;;;;;;;14.65;7.43;;;102.50;1920.00;;;;;;4858302;29;20040;-71
2021/03/06 03:38:38;;;;;;;14.80;8.40;;;102.50;1920.00;;;;;;4857276;29;20033;-72
2021/03/06 03:41:07;;;;;;;14.02;8.20;;;102.50;1894.40;;;;;;4907242;29;20117;-71
2021/03/06 03:43:34;;;;;;;13.40;7.25;;;102.50;1894.40;;;;;;4899586;29;20028;-72
2021/03/06 03:46:03;;;;;;;14.68;7.93;;;102.50;1894.40;;;;;;4928817;29;20115;-72
2021/03/06 03:48:29;;;;;;;14.25;6.88;;;102.50;1894.40;;;;;;4911375;29;20034;-72
2021/03/06 03:50:54;;;;;;;13.30;7.40;;;102.50;1894.40;;;;;;4935234;29;20152;-72
2021/03/06 03:53:21;;;;;;;12.50;7.20;;;102.50;1868.80;;;;;;4934754;29;20103;-72
2021/03/06 03:55:47;;;;;;;13.77;7.90;;;102.50;1868.80;;;;;;4931478;29;20028;-72
2021/03/06 03:58:13;;;;;;;11.73;7.45;;;102.50;1868.80;;;;;;4916163;29;20032;-72
2021/03/06 04:00:39;;;;;;;12.25;6.28;;;102.50;1843.20;;;;;;4928771;29;20120;-71
2021/03/06 04:03:06;;;;;;;14.02;7.63;;;102.50;1843.20;;;;;;4922066;29;20020;-71
2021/03/06 04:05:32;;;;;;;10.63;7.03;;;102.50;1843.20;;;;;;4915300;29;20346;-71
2021/03/06 04:07:58;;;;;;;11.75;6.40;;;102.50;1843.20;;;;;;4915770;29;20028;-71
2021/03/06 04:10:25;;;;;;;10.70;6.80;;;102.50;1843.20;;;;;;4915644;29;20466;-71
2021/03/06 04:12:56;;;;;;;11.82;6.45;;;102.50;1817.60;;;;;;4914369;29;20040;-71
2021/03/06 04:15:23;;;;;;;11.10;6.43;;;102.60;1817.60;;;;;;4915201;29;20031;-71
2021/03/06 04:17:50;;;;;;;11.77;8.02;;;102.60;1817.60;;;;;;4923251;29;20079;-71
2021/03/06 04:20:19;;;;;;;8.82;5.50;;;102.50;1792.00;;;;;;4917672;29;20024;-71
2021/03/06 04:22:46;;;;;;;12.57;7.35;;;102.50;1817.60;;;;;;4921619;29;20119;-71
2021/03/06 04:25:12;;;;;;;10.00;6.43;;;102.50;1792.00;;;;;;4927540;29;20803;-71
2021/03/06 04:27:38;;;;;;;11.52;6.43;;;102.50;1792.00;;;;;;4920092;29;20070;-71
2021/03/06 04:30:09;;;;;;;11.68;5.57;;;102.60;1792.00;;;;;;4917584;29;20024;-71
2021/03/06 04:32:35;;;;;;;9.43;6.32;;;102.50;1792.00;;;;;;4913471;29;20087;-71
2021/03/06 04:35:01;;;;;;;10.65;6.35;;;102.50;1792.00;;;;;;4915321;29;20044;-71
2021/03/06 04:37:27;;;;;;;12.93;6.65;;;102.50;1792.00;;;;;;4922186;29;20040;-72
2021/03/06 04:39:53;;;;;;;12.20;6.63;;;102.50;1792.00;;;;;;4929986;29;20039;-71
2021/03/06 04:42:19;;;;;;;11.20;6.55;;;102.50;1766.40;;;;;;4934420;29;20039;-72
2021/03/06 04:44:44;;;;;;;11.13;5.85;;;102.40;1766.40;;;;;;4909890;29;20061;-71
2021/03/06 04:47:10;;;;;;;8.68;5.43;;;102.40;1766.40;;;;;;4935449;29;20032;-71
2021/03/06 04:49:38;;;;;;;10.63;7.47;;;102.40;1792.00;;;;;;4927911;29;20040;-71
2021/03/06 04:52:05;;;;;;;10.32;6.25;;;102.40;1766.40;;;;;;4916707;29;20594;-71
2021/03/06 04:54:31;;;;;;;8.73;5.63;;;77.70;1766.40;;;;;;4926597;29;20024;-72
2021/03/06 04:56:56;;;;;;;10.20;5.97;;;77.70;1766.40;;;;;;4922265;29;20047;-72
2021/03/06 04:59:22;;;;;;;7.97;5.95;;;77.70;1766.40;;;;;;4917875;29;20775;-72
2021/03/06 05:01:48;;;;;;;14.88;6.55;;;77.70;1766.40;;;;;;4920164;29;20063;-72
2021/03/06 05:04:14;;;;;;;10.15;6.10;;;77.60;1766.40;;;;;;4919952;29;20370;-72
2021/03/06 05:06:39;;;;;;;13.13;6.32;;;77.60;1766.40;;;;;;4928429;29;20031;-71
2021/03/06 05:09:05;;;;;;;8.65;6.20;;;77.60;1766.40;;;;;;4933779;29;20032;-71
2021/03/06 05:11:31;;;;;;;9.60;5.93;;;77.60;1792.00;;;;;;4947636;29;20055;-72
2021/03/06 05:13:57;;;;;;;12.32;6.55;;;77.60;1766.40;;;;;;4923473;29;20477;-71
2021/03/06 05:16:23;;;;;;;10.48;6.43;;;77.60;1766.40;;;;;;4929080;29;20067;-71
2021/03/06 05:18:48;;;;;;;10.30;6.72;;;77.60;1766.40;;;;;;4918081;29;20062;-71
2021/03/06 05:21:14;;;;;;;14.35;6.15;;;77.60;1792.00;;;;;;4949435;28;20487;-71
2021/03/06 05:23:40;;;;;;;9.20;6.78;;;77.50;1792.00;;;;;;4930057;29;20119;-71
2021/03/06 05:26:05;;;;;;;9.32;6.38;;;77.50;1792.00;;;;;;4920767;29;20119;-71
2021/03/06 05:28:31;;;;;;;9.50;5.32;;;77.50;1792.00;;;;;;4932965;29;20786;-71
2021/03/06 05:30:57;;;;;;;12.95;6.57;;;77.50;1766.40;;;;;;4928115;29;20365;-71
2021/03/06 05:33:22;;;;;;;9.60;5.60;;;77.60;1766.40;;;;;;4930463;28;20059;-71
2021/03/06 05:35:48;;;;;;;10.98;5.78;;;77.50;1792.00;;;;;;4929037;29;20040;-70
2021/03/06 05:38:14;;;;;;;10.98;5.90;;;77.50;1792.00;;;;;;4918974;29;20026;-71
2021/03/06 05:40:42;;;;;;;15.02;6.80;;;77.50;1792.00;;;;;;4923457;29;20082;-71
2021/03/06 05:43:09;;;;;;;11.45;6.10;;;77.50;1792.00;;;;;;4923263;29;20116;-70
2021/03/06 05:45:35;;;;;;;16.20;6.80;;;77.50;1766.40;;;;;;4918469;29;20684;-71
2021/03/06 05:48:02;;;;;;;11.38;6.57;;;77.60;1792.00;;;;;;4933067;29;20034;-71
2021/03/06 05:50:29;;;;;;;10.27;5.72;;;77.50;1792.00;;;;;;4935320;29;20024;-71
2021/03/06 05:52:59;;;;;;;13.73;6.40;;;77.50;1792.00;;;;;;4922751;29;20103;-71
2021/03/06 05:55:28;;;;;;;11.70;6.07;;;77.60;1792.00;;;;;;4932385;29;20481;-71
2021/03/06 05:57:55;;;;;;;17.00;6.50;;;77.50;1792.00;;;;;;4935179;29;20436;-71
2021/03/06 06:00:21;;;;;;;11.13;6.30;;;77.50;1766.40;;;;;;4930265;29;20020;-71
2021/03/06 06:02:48;;;;;;;9.10;5.13;;;77.50;1766.40;;;;;;4919475;29;20024;-71
2021/03/06 06:05:16;;;;;;;8.40;5.18;;;77.60;1766.40;;;;;;4925548;29;20036;-71
2021/03/06 06:07:44;;;;;;;11.43;5.60;;;77.60;1766.40;;;;;;4918889;29;20398;-70
2021/03/06 06:10:11;;;;;;;14.77;7.32;;;77.60;1766.40;;;;;;4933213;29;20016;-71
2021/03/06 06:12:37;;;;;;;9.50;6.00;;;77.60;1740.80;;;;;;4920629;29;20031;-71
2021/03/06 06:15:03;;;;;;;9.02;5.30;;;77.60;1740.80;;;;;;4932711;29;20016;-71
2021/03/06 06:17:30;;;;;;;11.13;5.45;;;77.60;1740.80;;;;;;4904343;29;20497;-72
2021/03/06 06:19:58;;;;;;;14.98;6.93;;;77.70;1740.80;;;;;;4920821;29;20040;-72
2021/03/06 06:22:25;;;;;;;11.63;5.88;;;77.70;1740.80;;;;;;4923738;29;20043;-71
2021/03/06 06:24:52;;;;;;;19.92;7.20;;;102.40;1740.80;;;;;;4927801;29;20024;-71
2021/03/06 06:27:27;;;;;;;15.05;6.00;;;102.50;1740.80;;;;;;4923357;29;20092;-71
2021/03/06 06:29:55;;;;;;;10.82;5.80;;;102.50;1715.20;;;;;;4917424;29;20024;-71
2021/03/06 06:32:44;;;;;;;14.20;6.72;;;102.60;1740.80;;;;;;4923273;29;20493;-71
2021/03/06 06:35:12;;;;;;;11.05;5.75;;;102.70;1689.60;;;;;;4913600;29;20051;-71
2021/03/06 06:37:39;;;;;;;10.20;5.47;;;102.70;1664.00;;;;;;4917560;29;20524;-71
2021/03/06 06:40:20;;;;;;;9.18;5.20;;;102.80;1638.40;;;;;;4917699;29;20032;-71
2021/03/06 06:42:45;;;;;;;11.18;5.90;;;102.70;1638.40;;;;;;4920484;29;20031;-71
2021/03/06 06:45:12;;;;;;;14.07;5.72;;;102.80;1664.00;;;;;;4922726;29;20028;-72
2021/03/06 06:47:43;;;;;;;11.10;5.90;;;102.90;1638.40;;;;;;4917404;29;20024;-71
2021/03/06 06:50:11;;;;;;;16.05;6.15;;;102.90;1612.80;;;;;;4918032;29;20761;-71
2021/03/06 06:52:39;;;;;;;12.23;5.57;;;102.90;1612.80;;;;;;4905462;29;20032;-71
2021/03/06 06:55:07;;;;;;;12.73;5.43;;;102.90;1587.20;;;;;;4919670;29;20032;-71
2021/03/06 06:57:33;;;;;;;8.18;5.47;;;102.90;1561.60;;;;;;4926544;29;20025;-71
2021/03/06 07:00:06;;;;;;;9.68;5.93;;;102.90;1587.20;;;;;;4924605;29;20039;-71
2021/03/06 07:02:33;;;;;;;8.20;5.22;;;103.00;1561.60;;;;;;4926644;29;20370;-71
2021/03/06 07:05:03;;;;;;;10.40;6.22;;;103.00;1561.60;;;;;;4931136;29;20039;-71
2021/03/06 07:07:42;;;;;;;9.82;4.93;;;103.10;1536.00;;;;;;4922997;29;20077;-71
2021/03/06 07:10:18;;;;;;;14.93;5.85;;;103.10;1536.00;;;;;;4937963;29;20046;-71
2021/03/06 07:13:05;;;;;;;10.43;6.30;;;103.10;1536.00;;;;;;4933813;29;20027;-71
2021/03/06 07:15:31;;;;;;;14.80;7.03;;;103.30;1510.40;;;;;;4921833;29;20378;-72
2021/03/06 07:18:00;;;;;;;14.35;6.40;;;103.20;1459.20;;;;;;4935271;29;20027;-71
2021/03/06 07:20:27;;;;;;;8.48;4.65;;;103.30;1433.60;;;;;;4923695;29;20108;-72
2021/03/06 07:22:58;;;;;;;8.68;5.55;;;103.30;1433.60;;;;;;4908306;29;20071;-72
2021/03/06 07:25:25;;;;;;;12.48;7.90;;;128.00;1459.20;;;;;;4906767;29;20110;-72
2021/03/06 07:27:51;;;;;;;11.25;5.70;;;128.20;1433.60;;;;;;4908384;29;20453;-72
2021/03/06 07:30:18;;;;;;;7.10;4.90;;;128.10;1433.60;;;;;;4923689;29;20053;-72
2021/03/06 07:32:46;;;;;;;10.57;5.97;;;128.20;1408.00;;;;;;4920121;29;20029;-72
2021/03/06 07:35:14;;;;;;;7.82;5.05;;;128.20;1408.00;;;;;;4902264;29;20048;-72
2021/03/06 07:37:41;;;;;;;10.25;6.10;;;128.30;1408.00;;;;;;4908858;29;20040;-72
2021/03/06 07:40:12;;;;;;;7.75;5.60;;;128.40;1382.40;;;;;;4928559;29;20035;-71
2021/03/06 07:43:01;;;;;;;16.95;6.07;;;128.40;1382.40;;;;;;4924106;29;20036;-72
2021/03/06 07:45:28;;;;;;;9.32;5.95;;;128.70;1356.80;;;;;;4926594;29;20413;-71
2021/03/06 07:48:23;;;;;;;11.25;5.28;;;153.60;1331.20;;;;;;4919076;29;20024;-72
2021/03/06 07:50:53;;;;;;;20.80;6.35;;;128.80;1305.60;;;;;;4905751;29;20028;-71
2021/03/06 07:53:19;;;;;;;10.23;5.20;;;128.90;1331.20;;;;;;4923197;29;20035;-72
2021/03/06 07:55:46;;;;;;;9.60;4.72;;;153.70;1331.20;;;;;;4916792;29;20031;-72
2021/03/06 07:58:19;;;;;;;6.75;4.53;;;153.80;1305.60;;;;;;4917866;29;20060;-72
2021/03/06 08:00:47;;;;;;;9.07;5.75;;;153.90;1305.60;;;;;;4919103;29;20031;-71
2021/03/06 08:03:34;;;;;;;9.52;5.80;;;153.90;1280.00;;;;;;4910964;29;20497;-71
2021/03/06 08:06:00;;;;;;;10.27;4.95;;;154.20;1254.40;;;;;;4917660;29;20043;-72
2021/03/06 08:08:32;;;;;;;8.00;5.10;;;153.70;1254.40;;;;;;4917067;29;20059;-71
2021/03/06 08:11:10;;;;;;;6.90;4.53;;;153.70;1254.40;;;;;;4934119;29;20074;-71
2021/03/06 08:13:36;;;;;;;8.88;4.80;;;153.60;1254.40;;;;;;4923392;29;20031;-71
2021/03/06 08:16:22;;;;;;;7.93;4.53;;;153.70;1280.00;;;;;;4934244;29;20023;-71
2021/03/06 08:19:00;;;;;;;10.45;4.63;;;153.90;1280.00;;;;;;4902247;29;20123;-72
2021/03/06 08:21:31;;;;;;;10.35;5.53;;;154.10;1254.40;;;;;;4915726;29;20040;-71
2021/03/06 08:24:23;;;;;;;8.32;5.25;;;154.30;1228.80;;;;;;4931944;29;20034;-72
2021/03/06 08:27:03;;;;;;;10.88;5.18;;;154.40;1254.40;;;;;;4924994;29;20164;-72
2021/03/06 08:29:30;;;;;;;10.85;6.70;;;179.30;1228.80;;;;;;4927543;29;20028;-72
2021/03/06 08:32:02;;;;;;;10.90;5.28;;;179.60;1203.20;;;;;;4916359;29;20148;-71
2021/03/06 08:34:39;;;;;;;8.90;5.95;;;179.70;1177.60;;;;;;4920610;29;20056;-72
2021/03/06 08:37:14;;;;;;;9.27;5.15;;;204.90;1126.40;;;;;;4915374;29;20813;-71
2021/03/06 08:39:51;;;;;;;9.98;4.97;;;205.20;1075.20;;;;;;4934218;29;20036;-71
2021/03/06 08:42:19;;;;;;;11.95;4.50;;;205.10;1049.60;;;;;;4900001;29;20028;-72
2021/03/06 08:44:46;;;;;;;9.50;5.88;;;205.40;1049.60;;;;;;4915802;29;20095;-72
2021/03/06 08:47:20;;;;;;;9.25;6.30;;;205.40;1075.20;;;;;;4920772;29;20036;-72
2021/03/06 08:49:46;;;;;;;9.02;4.68;;;230.40;998.40;;;;;;4924608;29;20020;-72
2021/03/06 08:52:12;;;;;;;10.45;5.55;;;205.60;998.40;;;;;;4914946;29;20381;-72
2021/03/06 08:54:41;;;;;;;11.98;5.22;;;230.40;972.80;;;;;;4922675;29;20032;-72
2021/03/06 08:57:29;;;;;;;8.13;4.13;;;230.40;947.20;;;;;;4928455;29;20033;-72
2021/03/06 08:59:57;;;;;;;10.18;4.93;;;230.50;921.60;;;;;;4921788;29;20056;-72
2021/03/06 09:02:30;;;;;;;8.55;4.72;;;230.80;921.60;;;;;;4913401;29;20470;-72
2021/03/06 09:05:28;;;;;;;9.93;4.50;;;231.30;844.80;;;;;;4909657;29;20515;-72
2021/03/06 09:07:56;;;;;;;11.02;6.22;;;231.20;844.80;;;;;;4915832;29;20048;-73
2021/03/06 09:10:27;;;;;;;10.45;5.00;;;256.10;819.20;;;;;;4910420;29;20028;-73
2021/03/06 09:12:57;;;;;;;8.50;4.55;;;256.20;819.20;;;;;;4908409;29;20032;-72
2021/03/06 09:15:31;;;;;;;7.82;4.18;;;256.20;768.00;;;;;;4913841;29;20028;-72
2021/03/06 09:17:58;;;;;;;7.13;4.60;;;256.70;768.00;;;;;;4909193;29;20097;-73
2021/03/06 09:20:25;;;;;;;6.82;3.70;;;256.50;768.00;;;;;;4912885;29;20489;-72
2021/03/06 09:22:51;;;;;;;8.07;3.97;;;256.80;742.40;;;;;;4925160;29;20032;-73
2021/03/06 09:25:28;;;;;;;6.53;3.50;;;256.70;742.40;;;;;;4907805;29;20393;-72
2021/03/06 09:27:54;;;;;;;6.18;4.05;;;256.50;691.20;;;;;;4930760;29;20035;-72
2021/03/06 09:30:27;;;;;;;8.45;3.42;;;256.90;691.20;;;;;;4912014;29;20448;-73
2021/03/06 09:32:54;;;;;;;5.65;2.90;;;281.80;716.80;;;;;;4905888;29;20044;-72
2021/03/06 09:35:20;;;;;;;6.28;3.70;;;282.00;691.20;;;;;;4910314;29;20053;-72
2021/03/06 09:37:46;;;;;;;5.57;3.50;;;281.90;691.20;;;;;;4913450;29;20079;-72
2021/03/06 09:40:20;;;;;;;7.80;3.92;;;282.20;716.80;;;;;;4905782;29;20040;-73
2021/03/06 09:42:51;;;;;;;7.28;3.78;;;282.30;691.20;;;;;;4907982;29;20031;-73
2021/03/06 09:45:18;;;;;;;9.43;3.65;;;282.30;691.20;;;;;;4912219;29;20039;-73
2021/03/06 09:47:45;;;;;;;6.45;3.63;;;282.00;665.60;;;;;;4899889;29;20555;-75
2021/03/06 09:50:14;;;;;;;5.72;3.53;;;282.20;665.60;;;;;;4914153;29;20503;-73
2021/03/06 09:52:40;;;;;;;6.57;2.55;;;282.30;665.60;;;;;;4909168;29;20028;-76
2021/03/06 09:55:19;;;;;;;6.22;3.47;;;307.30;665.60;;;;;;4911736;29;20091;-72
2021/03/06 09:57:44;;;;;;;8.75;3.50;;;282.20;665.60;;;;;;4906053;29;20036;-73
2021/03/06 10:00:26;;;;;;;5.95;3.15;;;282.30;665.60;;;;;;4911725;29;20048;-74
2021/03/06 10:02:53;;;;;;;11.10;5.35;;;282.40;665.60;;;;;;4903171;29;20036;-72
2021/03/06 10:05:25;;;;;;;5.35;2.92;;;307.20;665.60;;;;;;4902835;29;20437;-72
2021/03/06 10:07:55;;;;;;;6.22;3.40;;;282.30;640.00;;;;;;4910024;29;20025;-72
2021/03/06 10:10:25;;;;;;;8.80;3.78;;;307.20;640.00;;;;;;4907007;29;20442;-74
2021/03/06 10:12:52;;;;;;;5.72;2.80;;;307.60;640.00;;;;;;4914193;29;20040;-74
2021/03/06 10:15:19;;;;;;;6.47;3.80;;;307.30;614.40;;;;;;4906587;29;20045;-71
2021/03/06 10:17:45;;;;;;;4.47;2.97;;;307.50;614.40;;;;;;4909037;29;20031;-71
2021/03/06 10:20:11;;;;;;;5.78;3.60;;;307.80;614.40;;;;;;4909191;29;20052;-72
2021/03/06 10:22:48;;;;;;;7.65;4.03;;;307.40;588.80;;;;;;4908190;29;20067;-72
2021/03/06 10:25:26;;;;;;;9.07;5.80;;;307.80;588.80;;;;;;4912294;29;20781;-72
2021/03/06 10:27:52;;;;;;;8.80;4.05;;;333.00;640.00;;;;;;4925131;29;20048;-72
2021/03/06 10:30:27;;;;;;;5.95;3.35;;;333.50;640.00;;;;;;4908239;29;20032;-72
2021/03/06 10:33:05;;;;;;;6.45;3.40;;;333.30;614.40;;;;;;4909801;29;20107;-75
2021/03/06 10:35:41;;;;;;;4.50;3.65;;;333.30;640.00;;;;;;4914316;29;20056;-72
2021/03/06 10:38:33;;;;;;;4.80;2.92;;;333.30;614.40;;;;;;4909547;29;20024;-73
2021/03/06 10:41:01;;;;;;;9.18;3.28;;;333.00;614.40;;;;;;4914130;29;20013;-72
2021/03/06 10:43:28;;;;;;;8.93;3.97;;;333.40;640.00;;;;;;4909127;29;20043;-72
2021/03/06 10:45:54;;;;;;;5.43;3.38;;;333.50;640.00;;;;;;4907789;29;20442;-72
2021/03/06 10:48:30;;;;;;;9.23;3.67;;;333.50;614.40;;;;;;4918061;29;20095;-72
2021/03/06 10:50:57;;;;;;;7.35;3.58;;;333.50;614.40;;;;;;4914748;29;20122;-72
2021/03/06 10:53:23;;;;;;;5.85;3.53;;;307.80;588.80;;;;;;4912253;29;20028;-74
2021/03/06 10:55:51;;;;;;;9.35;5.70;;;282.20;614.40;;;;;;4914927;29;20024;-72
2021/03/06 10:58:18;;;;;;;8.25;3.38;;;307.40;640.00;;;;;;4908038;29;20056;-72
2021/03/06 11:00:45;;;;;;;5.30;3.10;;;307.70;588.80;;;;;;4918709;29;20388;-73
2021/03/06 11:03:11;;;;;;;5.97;3.42;;;332.90;640.00;;;;;;4912191;29;20416;-72
2021/03/06 11:05:39;;;;;;;6.63;5.85;;;332.80;614.40;;;;;;4912749;29;20485;-72
2021/03/06 11:08:19;;;;;;;6.03;3.30;;;332.90;640.00;;;;;;4911084;29;20025;-73
2021/03/06 11:10:50;;;;;;;7.97;3.80;;;332.80;614.40;;;;;;4907890;29;20071;-74
2021/03/06 11:13:17;;;;;;;10.13;4.15;;;307.50;588.80;;;;;;4914672;29;20058;-72
2021/03/06 11:15:51;;;;;;;4.88;3.78;;;332.80;640.00;;;;;;4914652;29;20020;-73
2021/03/06 11:18:17;;;;;;;6.32;4.13;;;332.80;640.00;;;;;;4910408;29;20024;-72
2021/03/06 11:20:44;;;;;;;10.25;5.68;;;333.00;614.40;;;;;;4909079;29;20027;-72
2021/03/06 11:23:09;;;;;;;5.10;3.58;;;308.10;614.40;;;;;;4911509;29;20397;-72
2021/03/06 11:25:36;;;;;;;4.70;3.25;;;332.80;614.40;;;;;;4911685;29;20034;-73
2021/03/06 11:28:01;;;;;;;7.20;6.20;;;333.20;640.00;;;;;;4914677;29;20043;-72
2021/03/06 11:30:54;;;;;;;4.90;3.47;;;307.70;614.40;;;;;;4910851;29;20481;-73
2021/03/06 11:33:20;;;;;;;5.85;3.50;;;282.40;614.40;;;;;;4906455;29;20055;-73
2021/03/06 11:35:48;;;;;;;4.25;2.90;;;282.30;614.40;;;;;;4910123;29;20028;-72
2021/03/06 11:38:15;;;;;;;7.30;3.35;;;307.20;614.40;;;;;;4907827;29;20028;-74
2021/03/06 11:40:44;;;;;;;7.90;4.68;;;333.00;640.00;;;;;;4910153;29;20020;-72
2021/03/06 11:43:10;;;;;;;7.18;3.80;;;333.20;640.00;;;;;;4913365;29;20425;-72
2021/03/06 11:45:36;;;;;;;7.65;3.03;;;358.50;588.80;;;;;;4912704;29;20521;-73
2021/03/06 11:48:03;;;;;;;5.18;3.08;;;358.50;588.80;;;;;;4910010;29;20024;-72
2021/03/06 11:50:32;;;;;;;6.00;3.47;;;358.70;588.80;;;;;;4918255;29;20031;-72
2021/03/06 11:53:00;;;;;;;8.68;3.53;;;333.30;614.40;;;;;;4914345;29;20020;-72
2021/03/06 11:55:26;;;;;;;5.30;3.25;;;282.20;588.80;;;;;;4912824;29;20024;-74
2021/03/06 11:57:51;;;;;;;6.82;4.15;;;256.90;588.80;;;;;;4915402;29;20024;-73
2021/03/06 12:00:22;;;;;;;6.70;3.70;;;256.10;588.80;;;;;;4917188;29;20020;-71
2021/03/06 12:02:49;;;;;;;5.82;3.25;;;231.30;640.00;;;;;;4916442;29;20035;-70
2021/03/06 12:05:15;;;;;;;13.18;7.97;;;256.70;588.80;;;;;;4934707;29;20131;-73
2021/03/06 12:07:42;;;;;;;6.45;3.65;;;307.50;614.40;;;;;;4909501;29;20094;-71
2021/03/06 12:10:10;;;;;;;4.50;3.28;;;333.40;588.80;;;;;;4912026;29;20484;-73
2021/03/06 12:12:36;;;;;;;6.63;4.32;;;358.40;537.60;;;;;;4917466;29;20032;-71
2021/03/06 12:15:04;;;;;;;7.70;3.25;;;384.10;512.00;;;;;;4917784;29;20035;-71
2021/03/06 12:17:30;;;;;;;6.80;3.22;;;384.00;512.00;;;;;;4916634;29;20028;-71
2021/03/06 12:19:55;;;;;;;6.18;3.75;;;359.30;512.00;;;;;;4915327;29;20196;-71
2021/03/06 12:22:21;;;;;;;5.35;3.58;;;358.80;512.00;;;;;;4915671;29;20590;-73
2021/03/06 12:24:47;;;;;;;5.80;3.38;;;358.90;563.20;;;;;;4914988;29;20029;-73
2021/03/06 12:27:14;;;;;;;5.82;2.90;;;332.80;588.80;;;;;;4914334;29;20028;-73